createdAt,value
2019-03-12T00:00:12.785Z,3.60
2019-03-12T00:02:40.977Z,3.83
2019-03-12T00:05:09.885Z,3.50
2019-03-12T00:07:38.069Z,3.30
2019-03-12T00:10:08.283Z,3.40
2019-03-12T00:15:12.696Z,4.27
2019-03-12T00:17:41.159Z,4.10
2019-03-12T00:20:09.330Z,4.27
2019-03-12T00:22:37.521Z,4.10
2019-03-12T00:25:05.843Z,5.50
2019-03-12T00:27:34.010Z,5.23
2019-03-12T00:30:02.938Z,5.27
2019-03-12T00:32:31.141Z,4.77
2019-03-12T00:34:59.378Z,4.60
2019-03-12T00:37:27.566Z,4.17
2019-03-12T00:39:55.728Z,4.03
2019-03-12T00:42:23.914Z,4.23
2019-03-12T00:44:52.156Z,4.53
2019-03-12T00:47:20.353Z,3.87
2019-03-12T00:49:49.250Z,4.50
2019-03-12T00:52:17.456Z,4.40
2019-03-12T00:54:45.654Z,4.50
2019-03-12T00:57:13.831Z,4.27
2019-03-12T00:59:42.246Z,4.30
2019-03-12T01:02:10.724Z,4.57
2019-03-12T01:04:38.903Z,4.53
2019-03-12T01:07:07.085Z,5.10
2019-03-12T01:09:35.249Z,5.13
2019-03-12T01:12:03.430Z,4.30
2019-03-12T01:14:31.900Z,4.23
2019-03-12T01:17:00.091Z,4.67
2019-03-12T01:19:28.367Z,4.73
2019-03-12T01:21:56.543Z,5.17
2019-03-12T01:24:24.719Z,5.10
2019-03-12T01:26:52.905Z,4.97
2019-03-12T01:29:21.074Z,5.07
2019-03-12T01:31:49.251Z,5.20
2019-03-12T01:34:17.445Z,4.93
2019-03-12T01:36:45.608Z,5.10
2019-03-12T01:39:13.779Z,4.67
2019-03-12T01:41:41.957Z,4.37
2019-03-12T01:44:10.144Z,4.73
2019-03-12T01:46:38.362Z,4.43
2019-03-12T01:49:06.531Z,4.80
2019-03-12T01:51:34.719Z,4.10
2019-03-12T01:54:02.904Z,4.90
2019-03-12T01:56:31.097Z,4.67
2019-03-12T01:58:59.271Z,4.07
2019-03-12T02:01:27.449Z,4.17
2019-03-12T02:03:55.630Z,4.93
2019-03-12T02:06:23.808Z,4.40
2019-03-12T02:08:52.001Z,4.70
2019-03-12T02:11:20.170Z,4.33
2019-03-12T02:13:48.358Z,4.50
2019-03-12T02:16:16.556Z,4.00
2019-03-12T02:18:45.016Z,3.83
2019-03-12T02:21:13.198Z,3.60
2019-03-12T02:23:41.361Z,3.57
2019-03-12T02:26:09.541Z,4.37
2019-03-12T02:28:37.709Z,4.03
2019-03-12T02:31:05.899Z,3.90
2019-03-12T02:33:34.063Z,4.60
2019-03-12T02:36:02.273Z,5.80
2019-03-12T02:38:30.802Z,3.47
2019-03-12T02:40:59.297Z,4.17
2019-03-12T02:43:27.499Z,3.40
2019-03-12T02:45:55.687Z,3.40
2019-03-12T02:48:23.874Z,3.77
2019-03-12T02:50:52.054Z,4.00
2019-03-12T02:53:20.241Z,2.97
2019-03-12T02:55:48.464Z,3.27
2019-03-12T02:58:16.689Z,3.60
2019-03-12T03:00:44.877Z,3.43
2019-03-12T03:03:13.061Z,2.90
2019-03-12T03:05:45.668Z,2.83
2019-03-12T03:08:14.721Z,2.67
2019-03-12T03:10:42.895Z,3.03
2019-03-12T03:13:11.059Z,3.10
2019-03-12T03:15:46.574Z,2.47
2019-03-12T03:18:14.746Z,2.90
2019-03-12T03:20:42.910Z,2.73
2019-03-12T03:23:11.435Z,2.50
2019-03-12T03:25:39.648Z,2.73
2019-03-12T03:28:07.826Z,2.27
2019-03-12T03:30:35.985Z,2.50
2019-03-12T03:33:04.249Z,2.60
2019-03-12T03:35:32.481Z,2.63
2019-03-12T03:38:00.982Z,2.53
2019-03-12T03:40:29.462Z,2.67
2019-03-12T03:42:57.671Z,2.63
2019-03-12T03:45:25.861Z,2.80
2019-03-12T03:47:54.038Z,2.90
2019-03-12T03:50:22.203Z,2.83
2019-03-12T03:52:50.468Z,2.30
2019-03-12T03:55:22.757Z,2.97
2019-03-12T03:57:51.190Z,2.83
2019-03-12T04:00:24.367Z,3.73
2019-03-12T04:02:52.856Z,4.27
2019-03-12T04:05:21.060Z,4.53
2019-03-12T04:07:49.252Z,5.60
2019-03-12T04:10:17.408Z,5.23
2019-03-12T04:12:45.703Z,5.00
2019-03-12T04:15:17.024Z,5.50
2019-03-12T04:17:45.254Z,4.17
2019-03-12T04:20:18.161Z,3.40
2019-03-12T04:22:46.759Z,2.50
2019-03-12T04:25:14.918Z,2.67
2019-03-12T04:27:43.128Z,2.87
2019-03-12T04:30:16.197Z,3.00
2019-03-12T04:32:44.664Z,2.30
2019-03-12T04:35:15.761Z,2.63
2019-03-12T04:37:44.270Z,2.83
2019-03-12T04:40:13.299Z,2.60
2019-03-12T04:42:41.531Z,2.83
2019-03-12T04:45:15.170Z,2.20
2019-03-12T04:47:43.326Z,2.67
2019-03-12T04:50:11.825Z,2.63
2019-03-12T04:52:40.023Z,2.80
2019-03-12T04:55:13.509Z,2.87
2019-03-12T04:57:41.698Z,2.40
2019-03-12T05:00:15.337Z,2.70
2019-03-12T05:02:43.556Z,2.70
2019-03-12T05:05:12.339Z,2.77
2019-03-12T05:07:40.543Z,3.23
2019-03-12T05:10:11.621Z,2.70
2019-03-12T05:12:40.094Z,2.70
2019-03-12T05:15:11.072Z,2.80
2019-03-12T05:17:39.244Z,2.73
2019-03-12T05:20:10.271Z,2.97
2019-03-12T05:22:38.458Z,3.00
2019-03-12T05:25:09.469Z,3.10
2019-03-12T05:27:37.941Z,2.57
2019-03-12T05:30:14.931Z,3.00
2019-03-12T05:32:43.139Z,2.63
2019-03-12T05:35:11.315Z,2.87
2019-03-12T05:37:39.515Z,3.10
2019-03-12T05:40:10.250Z,2.63
2019-03-12T05:42:38.522Z,2.63
2019-03-12T05:45:14.626Z,2.60
2019-03-12T05:47:42.803Z,3.33
2019-03-12T05:50:13.622Z,3.17
2019-03-12T05:52:41.786Z,2.73
2019-03-12T05:55:11.428Z,2.23
2019-03-12T05:57:39.587Z,2.23
2019-03-12T06:00:16.820Z,3.40
2019-03-12T06:02:45.247Z,2.03
2019-03-12T06:05:13.441Z,2.30
2019-03-12T06:07:41.630Z,2.33
2019-03-12T06:10:13.709Z,2.40
2019-03-12T06:12:41.898Z,2.53
2019-03-12T06:15:12.289Z,2.50
2019-03-12T06:17:40.514Z,2.63
2019-03-12T06:20:12.179Z,2.83
2019-03-12T06:22:40.396Z,3.00
2019-03-12T06:25:08.555Z,2.37
2019-03-12T06:27:36.738Z,2.77
2019-03-12T06:30:13.578Z,2.70
2019-03-12T06:32:52.404Z,2.87
2019-03-12T06:35:22.230Z,2.70
2019-03-12T06:37:55.102Z,2.50
2019-03-12T06:40:27.875Z,2.67
2019-03-12T06:42:57.744Z,2.40
2019-03-12T06:45:29.338Z,2.37
2019-03-12T06:48:05.110Z,2.77
2019-03-12T06:50:38.111Z,2.80
2019-03-12T06:53:24.478Z,2.53
2019-03-12T06:56:06.472Z,2.40
2019-03-12T06:58:54.069Z,2.63
2019-03-12T07:01:24.323Z,2.67
2019-03-12T07:03:57.165Z,2.73
2019-03-12T07:06:30.378Z,3.23
2019-03-12T07:09:09.894Z,2.93
2019-03-12T07:11:42.621Z,2.97
2019-03-12T07:14:31.822Z,2.90
2019-03-12T07:17:11.102Z,2.90
2019-03-12T07:19:44.027Z,3.20
2019-03-12T07:22:20.220Z,2.87
2019-03-12T07:24:50.110Z,2.90
2019-03-12T07:27:29.169Z,2.47
2019-03-12T07:30:01.911Z,2.73
2019-03-12T07:32:34.690Z,2.77
2019-03-12T07:35:04.870Z,2.80
2019-03-12T07:37:51.585Z,2.63
2019-03-12T07:40:30.733Z,2.47
2019-03-12T07:43:00.829Z,2.67
2019-03-12T07:45:33.615Z,2.90
2019-03-12T07:48:03.459Z,2.67
2019-03-12T07:50:42.555Z,2.97
2019-03-12T07:53:12.363Z,2.77
2019-03-12T07:55:51.433Z,2.53
2019-03-12T07:58:35.662Z,2.90
2019-03-12T08:01:04.250Z,3.03
2019-03-12T08:03:37.208Z,2.63
2019-03-12T08:06:13.190Z,2.80
2019-03-12T08:08:45.717Z,2.47
2019-03-12T08:11:24.250Z,3.20
2019-03-12T08:13:54.059Z,2.97
2019-03-12T08:16:24.044Z,2.50
2019-03-12T08:19:09.162Z,3.00
2019-03-12T08:21:41.490Z,2.43
2019-03-12T08:24:29.482Z,2.63
2019-03-12T08:27:02.388Z,2.23
2019-03-12T08:29:35.127Z,3.00
2019-03-12T08:32:16.659Z,2.17
2019-03-12T08:35:03.012Z,2.60
2019-03-12T08:37:41.862Z,2.33
2019-03-12T08:40:11.779Z,2.40
2019-03-12T08:42:54.879Z,2.20
2019-03-12T08:45:36.694Z,2.40
2019-03-12T08:48:15.767Z,2.63
2019-03-12T08:50:48.678Z,2.57
2019-03-12T08:53:24.711Z,2.40
2019-03-12T08:55:57.715Z,2.63
2019-03-12T08:58:36.227Z,2.20
2019-03-12T09:01:06.238Z,2.90
2019-03-12T09:03:52.665Z,2.70
2019-03-12T09:06:34.242Z,3.03
2019-03-12T09:09:04.073Z,2.80
2019-03-12T09:11:50.546Z,2.13
2019-03-12T09:14:20.385Z,2.23
2019-03-12T09:17:02.409Z,2.83
2019-03-12T09:19:38.071Z,2.20
2019-03-12T09:22:26.279Z,2.07
2019-03-12T09:25:04.619Z,2.70
2019-03-12T09:27:50.052Z,2.73
2019-03-12T09:30:25.887Z,2.40
2019-03-12T09:33:07.497Z,2.90
2019-03-12T09:35:37.363Z,3.20
2019-03-12T09:38:07.245Z,2.30
2019-03-12T09:40:37.082Z,2.80
2019-03-12T09:43:06.907Z,2.47
2019-03-12T09:45:39.160Z,2.40
2019-03-12T09:48:09.013Z,2.00
2019-03-12T09:50:51.211Z,1.93
2019-03-12T09:53:27.374Z,2.87
2019-03-12T09:56:03.222Z,2.30
2019-03-12T09:58:50.982Z,2.37
2019-03-12T10:01:39.021Z,3.30
2019-03-12T10:04:09.363Z,5.07
2019-03-12T10:06:51.473Z,4.30
2019-03-12T10:09:21.655Z,2.13
2019-03-12T10:11:56.987Z,3.83
2019-03-12T10:14:27.122Z,3.27
2019-03-12T10:17:05.902Z,3.07
2019-03-12T10:19:35.758Z,3.40
2019-03-12T10:22:08.436Z,2.70
2019-03-12T10:24:44.670Z,2.60
2019-03-12T10:27:14.496Z,2.43
2019-03-12T10:29:44.309Z,2.60
2019-03-12T10:32:17.235Z,2.50
2019-03-12T10:34:52.862Z,2.10
2019-03-12T10:37:25.365Z,2.20
2019-03-12T10:40:13.850Z,2.60
2019-03-12T10:42:52.148Z,2.80
2019-03-12T10:45:30.983Z,2.83
2019-03-12T10:48:03.479Z,3.30
2019-03-12T10:50:31.814Z,2.20
2019-03-12T10:53:00.316Z,2.93
2019-03-12T10:55:28.513Z,2.90
2019-03-12T10:57:56.709Z,2.47
2019-03-12T11:00:24.906Z,2.63
2019-03-12T11:02:53.065Z,2.60
2019-03-12T11:05:21.289Z,3.20
2019-03-12T11:07:49.758Z,3.87
2019-03-12T11:10:19.094Z,4.33
2019-03-12T11:12:47.484Z,2.20
2019-03-12T11:15:16.644Z,2.50
2019-03-12T11:17:49.950Z,2.10
2019-03-12T11:20:19.971Z,2.80
2019-03-12T11:22:48.177Z,3.30
2019-03-12T11:25:26.585Z,3.63
2019-03-12T11:27:46.529Z,3.10
2019-03-12T11:30:16.951Z,2.97
2019-03-12T11:32:45.130Z,4.80
2019-03-12T11:35:13.689Z,4.13
2019-03-12T11:37:41.901Z,6.30
2019-03-12T11:40:24.180Z,2.63
2019-03-12T11:42:52.414Z,3.13
2019-03-12T11:45:34.893Z,2.20
2019-03-12T11:47:50.902Z,1.90
2019-03-12T11:50:20.979Z,2.00
2019-03-12T11:52:56.335Z,2.60
2019-03-12T11:55:19.369Z,3.10
2019-03-12T11:57:48.409Z,3.07
2019-03-12T12:00:23.962Z,2.30
2019-03-12T12:02:59.895Z,2.23
2019-03-12T12:05:22.252Z,3.03
2019-03-12T12:07:50.764Z,1.97
2019-03-12T12:10:19.440Z,2.60
2019-03-12T12:12:47.673Z,2.10
2019-03-12T12:15:16.601Z,2.40
2019-03-12T12:17:44.826Z,2.53
2019-03-12T12:20:14.559Z,2.83
2019-03-12T12:22:43.078Z,3.67
2019-03-12T12:25:18.483Z,2.33
2019-03-12T12:27:46.766Z,2.23
2019-03-12T12:30:22.830Z,1.80
2019-03-12T12:32:51.006Z,1.73
2019-03-12T12:35:19.535Z,2.30
2019-03-12T12:37:47.715Z,3.27
2019-03-12T12:40:17.343Z,2.20
2019-03-12T12:42:45.610Z,2.07
2019-03-12T12:45:28.669Z,1.53
2019-03-12T12:47:57.174Z,2.50
2019-03-12T12:50:25.851Z,1.93
2019-03-12T12:52:54.043Z,2.63
2019-03-12T12:55:22.517Z,2.33
2019-03-12T12:57:51.001Z,2.10
2019-03-12T13:00:21.431Z,2.30
2019-03-12T13:02:49.705Z,2.43
2019-03-12T13:05:19.802Z,1.73
2019-03-12T13:07:48.339Z,2.47
2019-03-12T13:10:28.164Z,2.27
2019-03-12T13:12:56.409Z,1.60
2019-03-12T13:15:24.778Z,2.10
2019-03-12T13:17:52.955Z,1.70
2019-03-12T13:20:21.443Z,1.87
2019-03-12T13:22:49.718Z,1.90
2019-03-12T13:25:19.791Z,1.67
2019-03-12T13:27:48.049Z,2.00
2019-03-12T13:30:18.938Z,1.87
2019-03-12T13:32:47.529Z,1.70
2019-03-12T13:35:16.967Z,1.53
2019-03-12T13:37:45.139Z,1.73
2019-03-12T13:40:18.633Z,1.23
2019-03-12T13:42:46.882Z,2.00
2019-03-12T13:45:18.015Z,1.70
2019-03-12T13:47:46.400Z,1.70
2019-03-12T13:50:14.837Z,1.70
2019-03-12T13:52:43.272Z,2.20
2019-03-12T13:55:13.874Z,1.60
2019-03-12T13:57:42.452Z,1.70
2019-03-12T14:00:14.137Z,1.40
2019-03-12T14:02:42.412Z,1.60
2019-03-12T14:05:11.794Z,1.70
2019-03-12T14:07:40.006Z,1.70
2019-03-12T14:10:17.563Z,1.77
2019-03-12T14:12:45.869Z,1.87
2019-03-12T14:15:19.850Z,1.63
2019-03-12T14:17:48.044Z,1.40
2019-03-12T14:20:42.684Z,2.47
2019-03-12T14:23:13.933Z,1.70
2019-03-12T14:25:42.202Z,1.40
2019-03-12T14:28:10.402Z,1.80
2019-03-12T14:30:38.986Z,1.90
2019-03-12T14:33:07.184Z,1.50
2019-03-12T14:35:35.747Z,1.50
2019-03-12T14:38:03.995Z,1.63
2019-03-12T14:40:32.259Z,2.27
2019-03-12T14:43:00.454Z,1.60
2019-03-12T14:45:29.560Z,2.07
2019-03-12T14:47:58.078Z,2.00
2019-03-12T14:50:28.105Z,1.67
2019-03-12T14:53:02.341Z,1.80
2019-03-12T14:55:30.771Z,1.63
2019-03-12T14:58:00.979Z,1.23
2019-03-12T15:00:29.218Z,1.60
2019-03-12T15:02:57.403Z,1.80
2019-03-12T15:05:25.672Z,1.63
2019-03-12T15:07:54.202Z,1.87
2019-03-12T15:10:22.383Z,1.73
2019-03-12T15:12:50.579Z,1.70
2019-03-12T15:15:19.107Z,2.20
2019-03-12T15:17:47.278Z,1.70
2019-03-12T15:20:15.915Z,1.37
2019-03-12T15:22:44.110Z,1.67
2019-03-12T15:25:14.178Z,2.10
2019-03-12T15:27:42.742Z,1.70
2019-03-12T15:30:17.059Z,1.70
2019-03-12T15:32:45.254Z,1.60
2019-03-12T15:35:13.480Z,1.60
2019-03-12T15:37:41.668Z,1.73
2019-03-12T15:40:13.662Z,1.70
2019-03-12T15:42:41.875Z,1.80
2019-03-12T15:45:12.090Z,1.50
2019-03-12T15:47:40.272Z,1.37
2019-03-12T15:50:13.651Z,1.40
2019-03-12T15:52:41.821Z,1.50
2019-03-12T15:55:10.269Z,1.50
2019-03-12T15:57:38.435Z,1.60
2019-03-12T16:00:15.404Z,1.50
2019-03-12T16:02:43.629Z,1.87
2019-03-12T16:05:11.958Z,1.30
2019-03-12T16:07:40.149Z,1.30
2019-03-12T16:10:13.689Z,1.40
2019-03-12T16:12:41.899Z,1.67
2019-03-12T16:15:11.521Z,1.47
2019-03-12T16:17:39.714Z,1.03
2019-03-12T16:20:13.211Z,1.20
2019-03-12T16:22:41.657Z,1.50
2019-03-12T16:25:10.461Z,1.53
2019-03-12T16:27:38.637Z,1.20
2019-03-12T16:30:12.444Z,1.23
2019-03-12T16:32:40.642Z,0.97
2019-03-12T16:35:10.460Z,1.30
2019-03-12T16:37:38.611Z,1.40
2019-03-12T16:40:13.436Z,1.33
2019-03-12T16:42:41.602Z,2.27
2019-03-12T16:45:12.007Z,1.70
2019-03-12T16:47:40.177Z,1.30
2019-03-12T16:50:16.301Z,1.17
2019-03-12T16:52:44.727Z,1.37
2019-03-12T16:55:15.087Z,1.50
2019-03-12T16:57:43.298Z,1.30
2019-03-12T17:00:17.019Z,1.47
2019-03-12T17:02:45.603Z,1.40
2019-03-12T17:05:14.235Z,1.40
2019-03-12T17:07:42.430Z,1.30
2019-03-12T17:10:22.890Z,1.50
2019-03-12T17:12:51.074Z,1.40
2019-03-12T17:15:25.110Z,1.30
2019-03-12T17:17:53.586Z,1.20
2019-03-12T17:20:21.985Z,1.53
2019-03-12T17:22:51.454Z,1.50
2019-03-12T17:25:19.603Z,1.50
2019-03-12T17:27:47.790Z,1.60
2019-03-12T17:30:22.735Z,1.10
2019-03-12T17:32:50.887Z,1.13
2019-03-12T17:35:30.583Z,1.50
2019-03-12T17:37:58.739Z,1.50
2019-03-12T17:40:27.425Z,1.40
2019-03-12T17:42:55.892Z,1.60
2019-03-12T17:45:25.763Z,1.60
2019-03-12T17:47:54.310Z,1.87
2019-03-12T17:50:22.512Z,2.43
2019-03-12T17:52:50.679Z,1.23
2019-03-12T17:55:18.842Z,1.70
2019-03-12T17:57:50.347Z,1.60
2019-03-12T18:00:32.280Z,1.43
2019-03-12T18:03:00.857Z,1.50
2019-03-12T18:05:29.424Z,1.50
2019-03-12T18:07:57.663Z,1.50
2019-03-12T18:10:26.169Z,1.47
2019-03-12T18:12:54.379Z,1.13
2019-03-12T18:15:22.855Z,1.20
2019-03-12T18:17:51.080Z,1.50
2019-03-12T18:20:20.528Z,1.60
2019-03-12T18:22:48.877Z,1.40
2019-03-12T18:25:33.652Z,1.37
2019-03-12T18:28:01.840Z,1.43
2019-03-12T18:30:30.012Z,1.57
2019-03-12T18:32:58.199Z,1.30
2019-03-12T18:35:26.422Z,1.50
2019-03-12T18:37:54.641Z,1.40
2019-03-12T18:40:27.104Z,1.30
2019-03-12T18:42:55.299Z,1.40
2019-03-12T18:45:29.356Z,1.53
2019-03-12T18:47:57.575Z,2.43
2019-03-12T18:50:25.766Z,1.53
2019-03-12T18:52:54.202Z,1.87
2019-03-12T18:55:31.130Z,1.80
2019-03-12T18:57:59.295Z,1.40
2019-03-12T19:00:27.490Z,1.50
2019-03-12T19:02:55.657Z,1.20
2019-03-12T19:05:24.173Z,1.40
2019-03-12T19:07:52.437Z,1.70
2019-03-12T19:10:20.757Z,1.10
2019-03-12T19:12:48.927Z,1.30
2019-03-12T19:15:17.796Z,1.43
2019-03-12T19:17:46.194Z,1.33
2019-03-12T19:20:18.387Z,1.50
2019-03-12T19:22:46.916Z,1.60
2019-03-12T19:25:22.804Z,1.20
2019-03-12T19:27:59.758Z,1.67
2019-03-12T19:30:21.226Z,1.47
2019-03-12T19:33:00.290Z,1.60
2019-03-12T19:35:30.123Z,1.73
2019-03-12T19:37:59.810Z,1.40
2019-03-12T19:40:34.230Z,1.60
2019-03-12T19:43:02.411Z,1.77
2019-03-12T19:45:30.886Z,1.27
2019-03-12T19:47:59.206Z,1.50
2019-03-12T19:50:27.725Z,1.50
2019-03-12T19:52:56.230Z,1.47
2019-03-12T19:55:27.474Z,1.90
2019-03-12T19:57:55.686Z,1.77
2019-03-12T20:00:25.520Z,1.63
2019-03-12T20:02:54.841Z,1.90
2019-03-12T20:05:23.087Z,1.40
2019-03-12T20:07:51.278Z,1.43
2019-03-12T20:10:57.420Z,1.80
2019-03-12T20:13:45.307Z,1.50
2019-03-12T20:16:34.227Z,1.60
2019-03-12T20:19:17.630Z,1.80
2019-03-12T20:22:22.547Z,1.70
2019-03-12T20:25:22.748Z,1.80
2019-03-12T20:28:10.457Z,2.00
2019-03-12T20:30:50.847Z,1.60
2019-03-12T20:33:44.765Z,1.70
2019-03-12T20:36:49.746Z,1.60
2019-03-12T20:39:46.419Z,1.77
2019-03-12T20:42:52.654Z,1.40
2019-03-12T20:45:55.719Z,1.57
2019-03-12T20:48:46.453Z,1.70
2019-03-12T20:51:38.728Z,1.57
2019-03-12T20:54:40.134Z,2.03
2019-03-12T20:57:44.772Z,1.67
2019-03-12T21:00:43.172Z,2.00
2019-03-12T21:03:45.843Z,2.10
2019-03-12T21:06:26.291Z,2.50
2019-03-12T21:09:23.131Z,1.70
2019-03-12T21:12:27.710Z,1.60
2019-03-12T21:15:34.221Z,1.37
2019-03-12T21:18:39.678Z,1.23
2019-03-12T21:21:30.112Z,1.67
2019-03-12T21:24:07.398Z,1.60
2019-03-12T21:26:50.271Z,1.67
2019-03-12T21:29:30.438Z,1.50
2019-03-12T21:31:58.703Z,1.00
2019-03-12T21:34:26.906Z,0.83
2019-03-12T21:36:55.089Z,0.87
2019-03-12T21:39:23.346Z,0.73
2019-03-12T21:41:51.506Z,0.60
2019-03-12T21:44:19.842Z,0.60
2019-03-12T21:46:48.122Z,0.70
2019-03-12T21:49:16.310Z,0.67
2019-03-12T21:51:44.472Z,1.00
2019-03-12T21:54:12.649Z,1.00
2019-03-12T21:56:40.813Z,1.10
2019-03-12T21:59:09.011Z,1.30
2019-03-12T22:01:37.187Z,1.20
2019-03-12T22:04:05.770Z,1.37
2019-03-12T22:06:34.248Z,1.00
2019-03-12T22:09:02.989Z,0.97
2019-03-12T22:11:31.425Z,1.27
2019-03-12T22:13:59.646Z,1.27
2019-03-12T22:16:27.894Z,1.30
2019-03-12T22:18:56.451Z,1.40
2019-03-12T22:21:26.566Z,1.90
2019-03-12T22:23:54.763Z,1.80
2019-03-12T22:26:22.939Z,2.00
2019-03-12T22:28:51.139Z,1.83
2019-03-12T22:31:19.578Z,2.10
2019-03-12T22:33:47.739Z,2.13
2019-03-12T22:36:15.902Z,2.30
2019-03-12T22:38:44.105Z,2.30
2019-03-12T22:41:12.558Z,2.13
2019-03-12T22:43:41.047Z,2.20
2019-03-12T22:46:09.234Z,2.43
2019-03-12T22:48:37.394Z,2.30
2019-03-12T22:51:05.641Z,1.90
2019-03-12T22:53:33.835Z,2.13
2019-03-12T22:56:01.999Z,1.90
2019-03-12T22:58:30.186Z,2.23
2019-03-12T23:00:58.423Z,2.10
2019-03-12T23:03:26.598Z,2.40
2019-03-12T23:05:54.787Z,2.40
2019-03-12T23:08:22.990Z,2.73
2019-03-12T23:10:51.151Z,2.50
2019-03-12T23:13:19.420Z,3.00
2019-03-12T23:15:47.583Z,2.63
2019-03-12T23:18:16.079Z,3.17
2019-03-12T23:20:44.246Z,2.93
2019-03-12T23:23:12.731Z,2.80
2019-03-12T23:25:40.918Z,3.10
2019-03-12T23:28:09.082Z,3.70
2019-03-12T23:30:37.561Z,3.23
2019-03-12T23:33:06.138Z,3.20
2019-03-12T23:35:34.462Z,3.73
2019-03-12T23:38:02.995Z,3.57
2019-03-12T23:40:31.482Z,3.57
2019-03-12T23:43:00.058Z,3.03
2019-03-12T23:45:28.549Z,3.77
2019-03-12T23:47:56.736Z,2.80
2019-03-12T23:50:25.398Z,3.10
2019-03-12T23:52:53.898Z,2.60
2019-03-12T23:55:22.142Z,2.30
2019-03-12T23:57:50.390Z,2.33
